Time;durP1;ratioP1;P1;durP2;ratioP2;P2;SDS_P1;SDS_P2;PMS_P1;PMS_P2;Temp;Humidity;BMP_temperature;BMP_pressure;BME280_temperature;BME280_humidity;BME280_pressure;Samples;Min_cycle;Max_cycle;Signal;HPM_P1;HPM_P2
2022/05/12 00:02:18;;;;;;;;;;;;;;;19.06;47.76;99716.08;109223;1263;22923;-76
2022/05/12 00:04:48;;;;;;;;;;;;;;;19.02;47.97;99714.83;109124;1267;22427;-76
2022/05/12 00:07:17;;;;;;;;;;;;;;;19.00;48.00;99711.09;108811;1272;22943;-76
2022/05/12 00:09:46;;;;;;;;;;;;;;;18.96;48.03;99712.11;108498;1273;22044;-78
2022/05/12 00:12:15;;;;;;;;;;;;;;;18.92;48.10;99708.05;108408;1273;22443;-75
2022/05/12 00:14:46;;;;;;;;;;;;;;;18.86;48.31;99705.36;108435;1273;21983;-75
2022/05/12 00:17:18;;;;;;;;;;;;;;;18.82;48.50;99700.99;108701;1273;22739;-75
2022/05/12 00:19:51;;;;;;;;;;;;;;;18.78;48.37;99698.13;108741;1270;21986;-76
2022/05/12 00:22:20;;;;;;;;;;;;;;;18.74;48.49;99695.82;108425;1274;22847;-76
2022/05/12 00:24:49;;;;;;;;;;;;;;;18.73;48.67;99699.97;108482;1273;22415;-76
2022/05/12 00:27:20;;;;;;;;;;;;;;;18.70;48.75;99698.70;108446;1273;22417;-76
2022/05/12 00:29:49;;;;;;;;;;;;;;;18.69;48.81;99693.16;108485;1270;21975;-76
2022/05/12 00:32:19;;;;;;;;;;;;;;;18.67;48.77;99693.30;109018;1263;23697;-76
2022/05/12 00:34:48;;;;;;;;;;;;;;;18.65;48.71;99690.46;109371;1263;24904;-76
2022/05/12 00:37:17;;;;;;;;;;;;;;;18.60;48.65;99687.84;109215;1264;23812;-75
2022/05/12 00:39:45;;;;;;;;;;;;;;;18.57;48.76;99682.75;109437;1258;21950;-75
2022/05/12 00:42:18;;;;;;;;;;;;;;;18.55;48.68;99682.23;109154;1263;21986;-76
2022/05/12 00:44:47;;;;;;;;;;;;;;;18.52;48.66;99678.11;109741;1261;21957;-76
2022/05/12 00:47:16;;;;;;;;;;;;;;;18.51;48.64;99678.20;109548;1261;22858;-77
2022/05/12 00:49:47;;;;;;;;;;;;;;;18.50;48.63;99677.11;109540;1263;22916;-75
2022/05/12 00:52:20;;;;;;;;;;;;;;;18.50;48.84;99674.60;109200;1261;21953;-75
2022/05/12 00:55:08;;;;;;;;;;;;;;;18.50;48.69;99677.27;109299;1261;23758;-76
2022/05/12 00:57:53;;;;;;;;;;;;;;;18.48;48.76;99674.88;109409;1261;22065;-76
2022/05/12 01:00:23;;;;;;;;;;;;;;;18.46;48.83;99675.19;109736;1258;21947;-75
2022/05/12 01:02:56;;;;;;;;;;;;;;;18.46;48.86;99673.10;109372;1262;21960;-76
2022/05/12 01:05:29;;;;;;;;;;;;;;;18.44;48.75;99675.00;109104;1267;22011;-76
2022/05/12 01:08:02;;;;;;;;;;;;;;;18.43;48.76;99674.11;109118;1267;22759;-77
2022/05/12 01:10:32;;;;;;;;;;;;;;;18.41;48.84;99674.73;108979;1267;21974;-76
2022/05/12 01:13:06;;;;;;;;;;;;;;;18.38;48.80;99670.17;109082;1267;23504;-76
2022/05/12 01:15:54;;;;;;;;;;;;;;;18.35;48.90;99666.73;109204;1267;21966;-76
2022/05/12 01:18:27;;;;;;;;;;;;;;;18.32;48.99;99665.55;108973;1267;24664;-76
2022/05/12 01:20:59;;;;;;;;;;;;;;;18.30;49.04;99662.73;109334;1261;22036;-75
2022/05/12 01:23:32;;;;;;;;;;;;;;;18.28;49.12;99660.16;109377;1264;21958;-76
2022/05/12 01:26:10;;;;;;;;;;;;;;;18.26;49.24;99654.56;109532;1264;22454;-76
2022/05/12 01:28:41;;;;;;;;;;;;;;;18.24;49.24;99656.73;109234;1262;23977;-76
2022/05/12 01:31:18;;;;;;;;;;;;;;;18.25;49.41;99654.91;109193;1264;22016;-76
2022/05/12 01:33:51;;;;;;;;;;;;;;;18.25;49.44;99652.52;109423;1264;21976;-76
2022/05/12 01:36:23;;;;;;;;;;;;;;;18.25;49.44;99652.24;109569;1264;22184;-75
2022/05/12 01:38:52;;;;;;;;;;;;;;;18.23;49.46;99648.36;109319;1267;21999;-78
2022/05/12 01:41:24;;;;;;;;;;;;;;;18.22;49.55;99647.96;109140;1267;23675;-76
2022/05/12 01:43:56;;;;;;;;;;;;;;;18.21;49.37;99649.50;109157;1266;21965;-76
2022/05/12 01:46:30;;;;;;;;;;;;;;;18.21;49.39;99645.90;109277;1265;22006;-76
2022/05/12 01:49:00;;;;;;;;;;;;;;;18.21;49.45;99647.73;109503;1261;21959;-76
2022/05/12 01:51:35;;;;;;;;;;;;;;;18.21;49.36;99647.25;109735;1261;22303;-75
2022/05/12 01:54:04;;;;;;;;;;;;;;;18.24;49.34;99645.55;109617;1260;21950;-76
2022/05/12 01:56:33;;;;;;;;;;;;;;;18.28;49.24;99645.63;108886;1268;22052;-76
2022/05/12 01:59:07;;;;;;;;;;;;;;;18.35;48.98;99645.35;108615;1270;22320;-75
2022/05/12 02:01:37;;;;;;;;;;;;;;;18.42;48.88;99643.73;108493;1275;21986;-76
2022/05/12 02:04:07;;;;;;;;;;;;;;;18.48;48.76;99640.42;108511;1275;21999;-76
2022/05/12 02:06:38;;;;;;;;;;;;;;;18.55;48.49;99644.05;108461;1276;23591;-76
2022/05/12 02:09:15;;;;;;;;;;;;;;;18.62;48.21;99644.27;108685;1272;23583;-76
2022/05/12 02:11:44;;;;;;;;;;;;;;;18.66;47.96;99646.19;108498;1276;22274;-76
2022/05/12 02:14:16;;;;;;;;;;;;;;;18.71;47.87;99640.20;108561;1267;22175;-77
2022/05/12 02:16:44;;;;;;;;;;;;;;;18.76;47.62;99640.95;109253;1264;23070;-77
2022/05/12 02:19:24;;;;;;;;;;;;;;;18.81;47.34;99640.67;109360;1258;21975;-75
2022/05/12 02:21:58;;;;;;;;;;;;;;;18.86;47.35;99640.45;110282;1257;21966;-76
2022/05/12 02:24:27;;;;;;;;;;;;;;;18.89;47.28;99638.73;110049;1258;21985;-76
2022/05/12 02:26:56;;;;;;;;;;;;;;;18.93;47.26;99640.05;109408;1264;23606;-78
2022/05/12 02:29:25;;;;;;;;;;;;;;;18.97;47.19;99637.96;109612;1264;21960;-76
2022/05/12 02:31:57;;;;;;;;;;;;;;;19.01;47.01;99634.92;109362;1264;21953;-77
2022/05/12 02:34:26;;;;;;;;;;;;;;;19.04;46.90;99636.00;109445;1263;21966;-78
2022/05/12 02:37:01;;;;;;;;;;;;;;;19.09;46.78;99637.84;109569;1264;22729;-76
2022/05/12 02:39:35;;;;;;;;;;;;;;;19.12;46.72;99639.99;109237;1263;23554;-76
2022/05/12 02:42:05;;;;;;;;;;;;;;;19.15;46.62;99636.58;109472;1263;22088;-76
2022/05/12 02:44:38;;;;;;;;;;;;;;;19.19;46.59;99636.45;109440;1257;23698;-76
2022/05/12 02:47:08;;;;;;;;;;;;;;;19.22;46.53;99636.37;109987;1258;23556;-76
2022/05/12 02:49:41;;;;;;;;;;;;;;;19.25;46.48;99636.16;109598;1264;23049;-77
2022/05/12 02:52:19;;;;;;;;;;;;;;;19.27;46.51;99633.56;109166;1267;23052;-77
2022/05/12 02:54:48;;;;;;;;;;;;;;;19.30;46.46;99635.33;108762;1270;23612;-77
2022/05/12 02:57:21;;;;;;;;;;;;;;;19.32;46.48;99632.73;108728;1271;21982;-76
2022/05/12 02:59:52;;;;;;;;;;;;;;;19.34;46.30;99632.45;108794;1270;21969;-77
2022/05/12 03:02:26;;;;;;;;;;;;;;;19.35;46.34;99630.48;108521;1273;21972;-76
2022/05/12 03:04:56;;;;;;;;;;;;;;;19.37;46.31;99632.45;108631;1273;23592;-76
2022/05/12 03:07:26;;;;;;;;;;;;;;;19.39;46.22;99635.73;108617;1276;22210;-77
2022/05/12 03:09:59;;;;;;;;;;;;;;;19.40;46.10;99633.57;108201;1276;22064;-76
2022/05/12 03:12:34;;;;;;;;;;;;;;;19.41;46.08;99629.40;108531;1270;23731;-76
2022/05/12 03:15:11;;;;;;;;;;;;;;;19.41;46.16;99633.31;108543;1273;23555;-76
2022/05/12 03:17:48;;;;;;;;;;;;;;;19.42;46.20;99632.04;108426;1276;21975;-77
2022/05/12 03:20:20;;;;;;;;;;;;;;;19.43;46.17;99634.73;108460;1271;23740;-76
2022/05/12 03:22:52;;;;;;;;;;;;;;;19.44;46.21;99632.45;108706;1273;23750;-76
2022/05/12 03:25:28;;;;;;;;;;;;;;;19.44;46.19;99632.07;108791;1270;23723;-77
2022/05/12 03:28:05;;;;;;;;;;;;;;;19.44;46.25;99635.18;109052;1264;21980;-77
2022/05/12 03:30:36;;;;;;;;;;;;;;;19.46;46.18;99632.15;108827;1270;22438;-76
2022/05/12 03:33:05;;;;;;;;;;;;;;;19.47;46.18;99630.83;108906;1270;23039;-75
2022/05/12 03:35:34;;;;;;;;;;;;;;;19.48;46.16;99628.70;108996;1265;21972;-75
2022/05/12 03:38:05;;;;;;;;;;;;;;;19.50;46.28;99627.84;109392;1263;23052;-76
2022/05/12 03:40:34;;;;;;;;;;;;;;;19.54;46.25;99624.08;109542;1263;23029;-76
2022/05/12 03:43:03;;;;;;;;;;;;;;;19.56;46.13;99623.38;109528;1263;24554;-75
2022/05/12 03:45:34;;;;;;;;;;;;;;;19.58;46.11;99621.20;109513;1263;21962;-75
2022/05/12 03:48:06;;;;;;;;;;;;;;;19.61;46.07;99619.74;109459;1258;21950;-75
2022/05/12 03:50:35;;;;;;;;;;;;;;;19.64;46.15;99619.39;109250;1264;21958;-76
2022/05/12 03:53:04;;;;;;;;;;;;;;;19.68;46.04;99617.31;109315;1264;21968;-75
2022/05/12 03:55:34;;;;;;;;;;;;;;;19.73;45.92;99620.86;109512;1264;21966;-75
2022/05/12 03:58:03;;;;;;;;;;;;;;;19.78;46.01;99623.83;109509;1264;21956;-76
2022/05/12 04:00:34;;;;;;;;;;;;;;;19.84;45.88;99619.41;109306;1264;21987;-75
2022/05/12 04:03:06;;;;;;;;;;;;;;;19.90;45.78;99618.33;108958;1267;24138;-76
2022/05/12 04:05:35;;;;;;;;;;;;;;;19.94;45.67;99618.34;109114;1266;23083;-75
2022/05/12 04:08:07;;;;;;;;;;;;;;;19.97;45.54;99620.04;108856;1261;22101;-75
2022/05/12 04:10:38;;;;;;;;;;;;;;;20.00;45.50;99616.85;109772;1262;21957;-76
2022/05/12 04:13:08;;;;;;;;;;;;;;;20.04;45.67;99611.59;108977;1267;22268;-76
2022/05/12 04:15:38;;;;;;;;;;;;;;;20.10;45.61;99612.23;109087;1267;23078;-76
2022/05/12 04:18:07;;;;;;;;;;;;;;;20.17;45.64;99616.71;108970;1267;22204;-76
2022/05/12 04:20:38;;;;;;;;;;;;;;;20.25;45.47;99617.22;108571;1270;21970;-76
2022/05/12 04:23:09;;;;;;;;;;;;;;;20.31;45.38;99619.73;108723;1273;22005;-78
2022/05/12 04:25:42;;;;;;;;;;;;;;;20.37;45.35;99621.15;108714;1273;22948;-76
2022/05/12 04:28:14;;;;;;;;;;;;;;;20.45;45.21;99620.65;108712;1273;23087;-76
2022/05/12 04:30:51;;;;;;;;;;;;;;;20.53;44.98;99618.51;108428;1273;21978;-76
2022/05/12 04:36:21;;;;;;;;;;;;;;;20.72;44.75;99628.98;108836;1273;23008;-78
2022/05/12 04:38:53;;;;;;;;;;;;;;;20.83;44.71;99633.02;108855;1267;23687;-78
2022/05/12 04:41:25;;;;;;;;;;;;;;;20.97;44.56;99632.98;108934;1267;21973;-80
2022/05/12 04:44:00;;;;;;;;;;;;;;;21.09;44.40;99633.21;109211;1268;21982;-80
2022/05/12 04:46:46;;;;;;;;;;;;;;;21.27;44.31;99636.54;109334;1267;22336;-81
2022/05/12 04:49:18;;;;;;;;;;;;;;;21.44;43.94;99638.70;109296;1262;21962;-81
2022/05/12 04:52:03;;;;;;;;;;;;;;;;;;;;;
2022/05/12 04:54:40;;;;;;;;;;;;;;;21.80;43.17;99643.05;108987;1267;22027;-81
2022/05/12 04:57:14;;;;;;;;;;;;;;;21.93;42.79;99642.76;108712;1273;21976;-79
2022/05/12 04:59:55;;;;;;;;;;;;;;;22.05;42.29;99644.17;108542;1273;21969;-79
2022/05/12 05:02:28;;;;;;;;;;;;;;;22.12;41.78;99642.11;108689;1273;21977;-78
2022/05/12 05:05:01;;;;;;;;;;;;;;;22.14;41.38;99640.95;108543;1273;21974;-79
2022/05/12 05:07:31;;;;;;;;;;;;;;;22.18;41.41;99648.23;109207;1268;23353;-79
2022/05/12 05:10:03;;;;;;;;;;;;;;;22.28;41.52;99644.33;109212;1264;22413;-78
2022/05/12 05:12:36;;;;;;;;;;;;;;;22.45;41.47;99649.23;109301;1263;21979;-78
2022/05/12 05:15:18;;;;;;;;;;;;;;;22.70;41.23;99653.48;109280;1264;23565;-79
2022/05/12 05:18:03;;;;;;;;;;;;;;;23.00;40.82;99651.64;108894;1269;21982;-79
2022/05/12 05:20:45;;;;;;;;;;;;;;;23.22;40.43;99661.16;108973;1270;22097;-79
2022/05/12 05:23:21;;;;;;;;;;;;;;;23.47;39.85;99666.94;109576;1264;22027;-77
2022/05/12 05:25:51;;;;;;;;;;;;;;;23.58;39.11;99673.61;109600;1263;21966;-76
2022/05/12 05:28:24;;;;;;;;;;;;;;;23.67;39.11;99677.20;109021;1270;21985;-79
2022/05/12 05:30:54;;;;;;;;;;;;;;;23.78;38.91;99680.05;108745;1270;23052;-77
2022/05/12 05:33:23;;;;;;;;;;;;;;;23.83;38.68;99683.13;108768;1270;23936;-78
2022/05/12 05:36:01;;;;;;;;;;;;;;;23.99;39.03;99686.45;108918;1264;22256;-78
2022/05/12 05:38:37;;;;;;;;;;;;;;;24.33;39.17;99687.94;109294;1264;21991;-79
2022/05/12 05:41:09;;;;;;;;;;;;;;;24.70;38.51;99687.33;109201;1264;21952;-78
2022/05/12 05:43:40;;;;;;;;;;;;;;;25.00;37.50;99695.07;109261;1266;22832;-78
2022/05/12 05:46:09;;;;;;;;;;;;;;;25.10;36.69;99697.34;109168;1261;23034;-80
2022/05/12 05:48:46;;;;;;;;;;;;;;;25.05;36.42;99698.44;109707;1262;22069;-79
2022/05/12 05:54:03;;;;;;;;;;;;;;;24.82;36.34;99711.58;109808;1261;22003;-79
2022/05/12 05:56:32;;;;;;;;;;;;;;;24.73;36.45;99712.70;109220;1265;21949;-79
2022/05/12 05:59:03;;;;;;;;;;;;;;;24.65;36.38;99721.83;109300;1264;23054;-78
2022/05/12 06:01:32;;;;;;;;;;;;;;;24.56;36.58;99726.28;108829;1270;21963;-79
2022/05/12 06:04:02;;;;;;;;;;;;;;;24.50;36.59;99737.91;108857;1267;23591;-79
2022/05/12 06:06:32;;;;;;;;;;;;;;;24.49;36.71;99741.98;109155;1267;22429;-79
2022/05/12 06:09:02;;;;;;;;;;;;;;;24.42;36.45;99743.16;109319;1267;23045;-78
2022/05/12 06:11:33;;;;;;;;;;;;;;;24.30;36.33;99751.91;109196;1267;23039;-79
2022/05/12 06:14:04;;;;;;;;;;;;;;;24.17;36.55;99757.00;109241;1261;22016;-80
2022/05/12 06:16:33;;;;;;;;;;;;;;;24.15;37.14;99759.05;109564;1262;21950;-79
2022/05/12 06:19:03;;;;;;;;;;;;;;;24.40;37.22;99767.77;109117;1264;23667;-79
2022/05/12 06:21:35;;;;;;;;;;;;;;;24.67;36.36;99774.09;109358;1267;22761;-79
2022/05/12 06:24:07;;;;;;;;;;;;;;;24.92;36.05;99781.36;109466;1267;22437;-78
2022/05/12 06:26:36;;;;;;;;;;;;;;;25.09;35.66;99781.34;108963;1267;21972;-79
2022/05/12 06:29:06;;;;;;;;;;;;;;;25.19;34.93;99784.73;109421;1267;23932;-78
2022/05/12 06:31:35;;;;;;;;;;;;;;;25.13;34.70;99789.92;109190;1267;23596;-81
2022/05/12 06:34:04;;;;;;;;;;;;;;;24.96;34.88;99788.84;108991;1267;24229;-78
2022/05/12 06:36:36;;;;;;;;;;;;;;;24.94;35.76;99787.13;109268;1261;23537;-82
2022/05/12 06:39:06;;;;;;;;;;;;;;;25.21;36.20;99795.34;109330;1264;22414;-80
2022/05/12 06:41:35;;;;;;;;;;;;;;;25.52;35.54;99796.21;109232;1264;23807;-79
2022/05/12 06:44:04;;;;;;;;;;;;;;;25.75;35.08;99812.08;109187;1264;22359;-77
2022/05/12 06:46:33;;;;;;;;;;;;;;;25.88;35.03;99828.45;109141;1267;21972;-80
2022/05/12 06:49:03;;;;;;;;;;;;;;;26.04;35.15;99838.45;108649;1264;738531;-78
2022/05/12 06:51:34;;;;;;;;;;;;;;;26.15;35.01;99850.98;108907;1270;23593;-79
2022/05/12 06:54:03;;;;;;;;;;;;;;;26.29;35.45;99858.17;108986;1267;21975;-79
2022/05/12 06:56:32;;;;;;;;;;;;;;;26.52;35.26;99865.02;109197;1264;23635;-78
2022/05/12 06:59:01;;;;;;;;;;;;;;;26.55;34.69;99873.41;108921;1269;22223;-78
2022/05/12 07:01:30;;;;;;;;;;;;;;;26.42;34.75;99880.98;109093;1270;23055;-79
2022/05/12 07:04:00;;;;;;;;;;;;;;;26.27;35.08;99893.06;108801;1267;21965;-77
2022/05/12 07:06:29;;;;;;;;;;;;;;;26.21;35.71;99899.88;109018;1269;23055;-78
2022/05/12 07:08:58;;;;;;;;;;;;;;;26.26;35.85;99908.06;108882;1269;23053;-78
2022/05/12 07:11:27;;;;;;;;;;;;;;;26.32;36.01;99915.06;108879;1273;22511;-78
2022/05/12 07:13:56;;;;;;;;;;;;;;;26.42;36.26;99919.65;108763;1272;21954;-80
2022/05/12 07:16:25;;;;;;;;;;;;;;;26.51;36.15;99923.55;108888;1267;23702;-79
2022/05/12 07:18:54;;;;;;;;;;;;;;;26.61;35.64;99933.32;108925;1267;22906;-78
2022/05/12 07:26:58;;;;;;;;;;;;;;;26.56;34.91;99946.65;109099;1267;21962;-78
2022/05/12 07:29:27;;;;;;;;;;;;;;;26.47;34.76;99957.80;109158;1264;23782;-78
2022/05/12 07:31:57;;;;;;;;;;;;;;;26.36;35.22;99954.73;109764;1258;23061;-79
2022/05/12 07:34:26;;;;;;;;;;;;;;;26.47;36.05;99963.16;110024;1259;23567;-79
2022/05/12 07:36:55;;;;;;;;;;;;;;;26.62;35.06;99971.83;110000;1258;23555;-78
2022/05/12 07:39:28;;;;;;;;;;;;;;;26.45;34.13;99978.29;110279;1258;24284;-78
2022/05/12 07:42:00;;;;;;;;;;;;;;;26.15;34.27;99983.02;110028;1258;21956;-78
2022/05/12 07:44:34;;;;;;;;;;;;;;;25.72;34.76;99979.86;110004;1258;23567;-78
2022/05/12 07:47:11;;;;;;;;;;;;;;;25.39;35.39;99981.23;110006;1258;22879;-78
2022/05/12 07:49:40;;;;;;;;;;;;;;;25.05;35.49;99982.41;110007;1258;23143;-79
2022/05/12 07:52:14;;;;;;;;;;;;;;;24.73;35.94;99984.64;109148;1264;23673;-78
2022/05/12 07:54:46;;;;;;;;;;;;;;;24.46;36.38;99993.58;109294;1264;21964;-79
2022/05/12 07:57:14;;;;;;;;;;;;;;;24.21;36.70;99994.77;109523;1263;23132;-78
2022/05/12 07:59:45;;;;;;;;;;;;;;;23.96;36.89;100007.33;109338;1264;22234;-78
2022/05/12 08:02:16;;;;;;;;;;;;;;;23.64;36.86;100011.96;108864;1270;22286;-79
2022/05/12 08:04:46;;;;;;;;;;;;;;;23.36;37.36;100010.63;108868;1270;23094;-78
2022/05/12 08:07:15;;;;;;;;;;;;;;;23.10;37.49;100016.60;108890;1270;22105;-79
2022/05/12 08:09:45;;;;;;;;;;;;;;;22.92;37.97;100028.08;108978;1263;23117;-78
2022/05/12 08:12:15;;;;;;;;;;;;;;;22.78;37.98;100028.65;108939;1267;21966;-79
2022/05/12 08:14:44;;;;;;;;;;;;;;;22.61;37.99;100034.30;109231;1267;21966;-78
2022/05/12 08:17:13;;;;;;;;;;;;;;;22.57;38.63;100043.63;109105;1267;23812;-79
2022/05/12 08:19:42;;;;;;;;;;;;;;;22.61;39.02;100049.22;108994;1264;23073;-79
2022/05/12 08:22:11;;;;;;;;;;;;;;;22.59;38.89;100052.21;109478;1264;22024;-78
2022/05/12 08:24:40;;;;;;;;;;;;;;;22.57;39.24;100050.42;109235;1263;22075;-79
2022/05/12 08:27:09;;;;;;;;;;;;;;;22.78;39.70;100051.48;109489;1263;22379;-79
2022/05/12 08:29:40;;;;;;;;;;;;;;;23.01;39.50;100054.73;109332;1258;23758;-79
2022/05/12 08:32:09;;;;;;;;;;;;;;;23.32;38.88;100059.96;110114;1258;21952;-78
2022/05/12 08:34:38;;;;;;;;;;;;;;;23.59;38.22;100063.83;109672;1263;22993;-80
2022/05/12 08:37:09;;;;;;;;;;;;;;;23.81;36.77;100076.27;109123;1267;21982;-78
2022/05/12 08:39:38;;;;;;;;;;;;;;;23.95;35.72;100085.55;109117;1267;23019;-79
2022/05/12 08:42:15;;;;;;;;;;;;;;;23.99;34.64;100090.91;109109;1267;21959;-79
2022/05/12 08:44:46;;;;;;;;;;;;;;;23.87;34.29;100091.61;108893;1270;21984;-79
2022/05/12 08:47:18;;;;;;;;;;;;;;;23.81;34.62;100090.94;108787;1270;22314;-80
2022/05/12 08:49:51;;;;;;;;;;;;;;;23.82;34.54;100095.42;109040;1270;23699;-77
2022/05/12 08:52:31;;;;;;;;;;;;;;;23.96;34.83;100097.11;108922;1267;21981;-78
2022/05/12 08:55:20;;;;;;;;;;;;;;;24.21;34.62;100107.20;109215;1264;24440;-79
2022/05/12 08:58:02;;;;;;;;;;;;;;;24.48;34.05;100118.45;109155;1264;22252;-78
2022/05/12 09:00:56;;;;;;;;;;;;;;;24.66;33.96;100124.65;108681;1272;21989;-78
2022/05/12 09:03:30;;;;;;;;;;;;;;;24.84;33.89;100121.66;109261;1264;23070;-78
2022/05/12 09:06:13;;;;;;;;;;;;;;;25.17;33.78;100125.99;108986;1269;23120;-79
2022/05/12 09:09:07;;;;;;;;;;;;;;;25.49;33.28;100134.54;108916;1270;22090;-77
2022/05/12 09:11:48;;;;;;;;;;;;;;;25.56;32.40;100127.27;108933;1270;23674;-78
2022/05/12 09:14:36;;;;;;;;;;;;;;;25.48;32.24;100132.91;108873;1270;22113;-77
2022/05/12 09:17:18;;;;;;;;;;;;;;;25.44;32.66;100137.90;108941;1269;23618;-78
2022/05/12 09:19:47;;;;;;;;;;;;;;;25.46;32.80;100129.62;109126;1266;22029;-77
2022/05/12 09:22:27;;;;;;;;;;;;;;;25.53;32.57;100139.77;109152;1267;21964;-78
2022/05/12 09:24:56;;;;;;;;;;;;;;;25.58;32.71;100133.16;109249;1264;21957;-78
2022/05/12 09:27:29;;;;;;;;;;;;;;;25.63;32.11;100136.35;109475;1263;21959;-77
2022/05/12 09:29:59;;;;;;;;;;;;;;;25.35;31.30;100159.46;109524;1264;22016;-78
2022/05/12 09:32:31;;;;;;;;;;;;;;;24.97;32.12;100164.48;109272;1264;21965;-77
2022/05/12 09:35:09;;;;;;;;;;;;;;;24.95;32.95;100169.73;109562;1264;22046;-78
2022/05/12 09:37:42;;;;;;;;;;;;;;;24.89;32.34;100165.39;109892;1260;21969;-78
2022/05/12 09:40:19;;;;;;;;;;;;;;;24.89;33.03;100168.27;110000;1260;21952;-77
2022/05/12 09:42:51;;;;;;;;;;;;;;;25.01;32.68;100174.06;110158;1258;21963;-78
2022/05/12 09:45:35;;;;;;;;;;;;;;;24.77;32.37;100186.65;109992;1258;21954;-77
2022/05/12 09:48:25;;;;;;;;;;;;;;;24.23;32.96;100193.35;110208;1258;23571;-78
2022/05/12 09:51:11;;;;;;;;;;;;;;;23.67;33.93;100186.72;110142;1258;22306;-78
2022/05/12 09:53:40;;;;;;;;;;;;;;;23.27;34.34;100196.59;110209;1258;21963;-78
2022/05/12 09:56:25;;;;;;;;;;;;;;;23.07;34.90;100196.64;110180;1258;22634;-78
2022/05/12 09:59:15;;;;;;;;;;;;;;;22.97;35.08;100196.01;110153;1258;23699;-79
2022/05/12 10:02:04;;;;;;;;;;;;;;;23.20;35.90;100189.88;110189;1258;21952;-77
2022/05/12 10:10:25;;;;;;;;;;;;;;;23.70;33.18;100207.89;110066;1258;23566;-78
2022/05/12 10:13:25;;;;;;;;;;;;;;;23.59;33.83;100214.91;110198;1258;21977;-79
2022/05/12 10:15:56;;;;;;;;;;;;;;;23.73;34.21;100220.11;109213;1270;22191;-78
2022/05/12 10:18:38;;;;;;;;;;;;;;;23.92;33.60;100222.96;108936;1270;21967;-79
2022/05/12 10:21:20;;;;;;;;;;;;;;;24.10;33.30;100231.12;108912;1270;21965;-78
2022/05/12 10:23:53;;;;;;;;;;;;;;;24.24;33.04;100227.77;109003;1270;22184;-78
2022/05/12 10:26:48;;;;;;;;;;;;;;;24.44;32.75;100231.07;109078;1270;23706;-78
2022/05/12 10:29:34;;;;;;;;;;;;;;;24.55;31.99;100232.32;108954;1270;21966;-78
2022/05/12 10:32:30;;;;;;;;;;;;;;;24.63;31.49;100241.48;108714;1276;23032;-78
2022/05/12 10:35:16;;;;;;;;;;;;;;;24.48;31.05;100242.05;108631;1272;23015;-78
2022/05/12 10:38:05;;;;;;;;;;;;;;;24.31;31.09;100238.75;108693;1272;21961;-78
2022/05/12 10:40:36;;;;;;;;;;;;;;;24.16;30.92;100246.92;108691;1272;21972;-78
2022/05/12 10:43:45;;;;;;;;;;;;;;;23.95;30.70;100252.08;108799;1273;23645;-78
2022/05/12 10:46:41;;;;;;;;;;;;;;;23.90;30.72;100245.23;108681;1272;23079;-79
2022/05/12 10:49:41;;;;;;;;;;;;;;;23.84;30.23;100250.58;108717;1273;21989;-78
2022/05/12 10:52:34;;;;;;;;;;;;;;;23.69;30.14;100256.45;109283;1264;21970;-78
2022/05/12 10:55:43;;;;;;;;;;;;;;;23.63;30.36;100264.55;110242;1258;23068;-78
2022/05/12 10:58:28;;;;;;;;;;;;;;;23.54;30.29;100270.20;109709;1261;23610;-78
2022/05/12 11:01:11;;;;;;;;;;;;;;;23.42;30.33;100272.63;109450;1262;23580;-78
2022/05/12 11:03:46;;;;;;;;;;;;;;;23.20;30.55;100274.66;109835;1261;21988;-78
2022/05/12 11:06:19;;;;;;;;;;;;;;;23.13;30.95;100281.20;109774;1262;23230;-77
2022/05/12 11:08:56;;;;;;;;;;;;;;;23.14;31.34;100283.81;109940;1262;22090;-78
2022/05/12 11:11:30;;;;;;;;;;;;;;;23.10;31.44;100288.56;109609;1262;21954;-79
2022/05/12 11:14:15;;;;;;;;;;;;;;;23.06;31.83;100289.76;109893;1262;23722;-78
2022/05/12 11:17:12;;;;;;;;;;;;;;;23.08;31.79;100287.66;109924;1263;21959;-78
2022/05/12 11:19:47;;;;;;;;;;;;;;;23.09;31.66;100285.08;109610;1261;23122;-77
2022/05/12 11:22:33;;;;;;;;;;;;;;;23.02;31.30;100292.56;109176;1267;23587;-79
2022/05/12 11:25:19;;;;;;;;;;;;;;;22.85;30.89;100295.62;109126;1267;21982;-78
2022/05/12 11:31:27;;;;;;;;;;;;;;;22.56;31.59;100301.10;109135;1267;21984;-78
2022/05/12 11:34:04;;;;;;;;;;;;;;;22.47;31.59;100302.16;109297;1264;21977;-78
2022/05/12 11:36:46;;;;;;;;;;;;;;;22.35;31.65;100302.19;109556;1263;24284;-79
2022/05/12 11:39:28;;;;;;;;;;;;;;;22.22;31.72;100303.45;108845;1270;21964;-78
2022/05/12 11:42:24;;;;;;;;;;;;;;;22.12;31.92;100308.88;108954;1267;21964;-77
2022/05/12 11:45:01;;;;;;;;;;;;;;;22.07;31.55;100314.06;109157;1267;22053;-78
2022/05/12 11:47:57;;;;;;;;;;;;;;;21.99;31.22;100316.46;109221;1267;23610;-78
2022/05/12 11:50:43;;;;;;;;;;;;;;;21.94;31.10;100312.98;109179;1266;22171;-77
2022/05/12 11:53:12;;;;;;;;;;;;;;;21.88;30.99;100319.13;109305;1267;21963;-77
2022/05/12 11:56:11;;;;;;;;;;;;;;;21.93;31.27;100319.69;109143;1267;21970;-78
2022/05/12 11:58:47;;;;;;;;;;;;;;;21.98;31.16;100320.80;110013;1260;21956;-77
2022/05/12 12:01:22;;;;;;;;;;;;;;;21.99;30.68;100320.77;110020;1258;23101;-78
2022/05/12 12:03:51;;;;;;;;;;;;;;;22.02;30.05;100320.58;110127;1261;23587;-78
2022/05/12 12:06:55;;;;;;;;;;;;;;;22.06;29.63;100322.21;110038;1258;23590;-79
2022/05/12 12:09:33;;;;;;;;;;;;;;;22.09;29.18;100327.65;109919;1261;21977;-79
2022/05/12 12:12:08;;;;;;;;;;;;;;;22.07;29.05;100325.90;109758;1262;23597;-79
2022/05/12 12:14:43;;;;;;;;;;;;;;;22.03;28.95;100321.41;109897;1262;23697;-79
2022/05/12 12:17:24;;;;;;;;;;;;;;;22.08;29.19;100323.88;109737;1263;22337;-77
2022/05/12 12:19:56;;;;;;;;;;;;;;;22.17;29.16;100333.41;109157;1267;22014;-77
2022/05/12 12:22:47;;;;;;;;;;;;;;;22.23;28.96;100336.58;109157;1267;22027;-78
2022/05/12 12:25:34;;;;;;;;;;;;;;;22.31;28.85;100332.98;109134;1267;23629;-78
2022/05/12 12:28:55;;;;;;;;;;;;;;;22.35;28.72;100335.98;109141;1267;22524;-77
2022/05/12 12:31:30;;;;;;;;;;;;;;;22.36;29.18;100337.52;109001;1269;21960;-77
2022/05/12 12:34:02;;;;;;;;;;;;;;;22.44;29.84;100348.72;109018;1268;22622;-78
2022/05/12 12:36:34;;;;;;;;;;;;;;;22.49;30.72;100355.42;109018;1268;22000;-78
2022/05/12 12:39:04;;;;;;;;;;;;;;;22.44;31.23;100354.06;109458;1265;22812;-78
2022/05/12 12:41:39;;;;;;;;;;;;;;;22.35;31.80;100349.62;108900;1270;23759;-78
2022/05/12 12:44:21;;;;;;;;;;;;;;;22.30;32.33;100349.59;109045;1267;21979;-78
2022/05/12 12:46:59;;;;;;;;;;;;;;;22.17;32.19;100341.67;109203;1267;23774;-77
2022/05/12 12:49:42;;;;;;;;;;;;;;;22.06;32.56;100348.16;109120;1267;22008;-78
2022/05/12 12:52:13;;;;;;;;;;;;;;;21.99;32.36;100347.34;109061;1267;21996;-78
2022/05/12 12:57:41;;;;;;;;;;;;;;;22.09;32.74;100351.81;109144;1267;24401;-78
2022/05/12 13:00:24;;;;;;;;;;;;;;;22.07;31.89;100354.63;109563;1262;21959;-78
2022/05/12 13:03:19;;;;;;;;;;;;;;;22.06;31.83;100352.93;109601;1262;21965;-78
2022/05/12 13:05:50;;;;;;;;;;;;;;;22.11;31.70;100348.88;109603;1261;22546;-78
2022/05/12 13:08:28;;;;;;;;;;;;;;;22.16;31.49;100348.45;109660;1260;23110;-78
2022/05/12 13:11:00;;;;;;;;;;;;;;;22.14;31.14;100357.55;110225;1258;23034;-78
2022/05/12 13:13:29;;;;;;;;;;;;;;;22.07;31.12;100365.56;109329;1264;23726;-77
2022/05/12 13:16:03;;;;;;;;;;;;;;;22.03;31.20;100366.45;109129;1267;21981;-78
2022/05/12 13:18:34;;;;;;;;;;;;;;;22.00;31.39;100368.33;109061;1267;22326;-78
2022/05/12 13:21:05;;;;;;;;;;;;;;;21.96;31.36;100374.23;109196;1264;23143;-78
2022/05/12 13:23:41;;;;;;;;;;;;;;;21.90;31.30;100375.48;109382;1267;21964;-78
2022/05/12 13:26:10;;;;;;;;;;;;;;;21.90;31.39;100376.27;109506;1264;22758;-78
2022/05/12 13:28:42;;;;;;;;;;;;;;;21.89;31.57;100370.23;109225;1267;23707;-77
2022/05/12 13:31:16;;;;;;;;;;;;;;;21.92;31.50;100369.32;109237;1267;22023;-78
2022/05/12 13:34:19;;;;;;;;;;;;;;;21.95;31.40;100376.36;109202;1267;21966;-78
2022/05/12 13:36:57;;;;;;;;;;;;;;;21.94;31.11;100375.23;108860;1273;21997;-77